sensor_id;sensor_type;location;lat;lon;timestamp;temperature;humidity
58638;DHT22;54976;51.510;7.522;2023-05-14T00:00:00;11.70;99.90
58638;DHT22;54976;51.510;7.522;2023-05-14T00:03:01;11.70;99.90
58638;DHT22;54976;51.510;7.522;2023-05-14T00:06:02;11.60;99.90
58638;DHT22;54976;51.510;7.522;2023-05-14T00:09:02;11.60;99.90
58638;DHT22;54976;51.510;7.522;2023-05-14T00:12:04;11.60;99.90
58638;DHT22;54976;51.510;7.522;2023-05-14T00:15:05;11.60;99.90
58638;DHT22;54976;51.510;7.522;2023-05-14T00:18:05;11.50;99.90
58638;DHT22;54976;51.510;7.522;2023-05-14T00:21:06;11.50;99.90
58638;DHT22;54976;51.510;7.522;2023-05-14T00:24:07;11.40;99.90
58638;DHT22;54976;51.510;7.522;2023-05-14T00:27:08;11.40;99.90
58638;DHT22;54976;51.510;7.522;2023-05-14T00:30:09;11.30;99.90
58638;DHT22;54976;51.510;7.522;2023-05-14T00:33:10;11.30;99.90
58638;DHT22;54976;51.510;7.522;2023-05-14T00:36:10;11.30;99.90
58638;DHT22;54976;51.510;7.522;2023-05-14T00:39:12;11.20;99.90
58638;DHT22;54976;51.510;7.522;2023-05-14T00:42:13;11.30;99.90
58638;DHT22;54976;51.510;7.522;2023-05-14T00:45:13;11.20;99.90
58638;DHT22;54976;51.510;7.522;2023-05-14T00:48:14;11.20;99.90
58638;DHT22;54976;51.510;7.522;2023-05-14T00:51:16;11.20;99.90
58638;DHT22;54976;51.510;7.522;2023-05-14T00:54:17;11.40;99.90
58638;DHT22;54976;51.510;7.522;2023-05-14T00:57:18;11.40;99.90
58638;DHT22;54976;51.510;7.522;2023-05-14T01:00:20;11.50;99.90
58638;DHT22;54976;51.510;7.522;2023-05-14T01:03:21;11.40;99.90
58638;DHT22;54976;51.510;7.522;2023-05-14T01:09:48;11.40;99.90
58638;DHT22;54976;51.510;7.522;2023-05-14T01:16:00;11.30;99.90
58638;DHT22;54976;51.510;7.522;2023-05-14T01:19:01;11.30;99.90
58638;DHT22;54976;51.510;7.522;2023-05-14T01:22:05;11.20;99.90
58638;DHT22;54976;51.510;7.522;2023-05-14T01:25:09;11.20;99.90
58638;DHT22;54976;51.510;7.522;2023-05-14T01:28:25;11.20;99.90
58638;DHT22;54976;51.510;7.522;2023-05-14T01:31:30;11.20;99.90
58638;DHT22;54976;51.510;7.522;2023-05-14T01:34:35;11.10;99.90
58638;DHT22;54976;51.510;7.522;2023-05-14T01:37:35;11.10;99.90
58638;DHT22;54976;51.510;7.522;2023-05-14T01:40:38;11.00;99.90
58638;DHT22;54976;51.510;7.522;2023-05-14T01:43:38;11.00;99.90
58638;DHT22;54976;51.510;7.522;2023-05-14T01:46:39;11.00;99.90
58638;DHT22;54976;51.510;7.522;2023-05-14T01:49:40;10.90;99.90
58638;DHT22;54976;51.510;7.522;2023-05-14T01:52:41;10.90;99.90
58638;DHT22;54976;51.510;7.522;2023-05-14T01:55:41;10.90;99.90
58638;DHT22;54976;51.510;7.522;2023-05-14T01:58:42;10.90;99.90
58638;DHT22;54976;51.510;7.522;2023-05-14T02:01:43;10.90;99.90
58638;DHT22;54976;51.510;7.522;2023-05-14T02:04:44;10.90;99.90
58638;DHT22;54976;51.510;7.522;2023-05-14T02:07:45;10.90;99.90
58638;DHT22;54976;51.510;7.522;2023-05-14T02:10:45;10.90;99.90
58638;DHT22;54976;51.510;7.522;2023-05-14T02:13:46;10.90;99.90
58638;DHT22;54976;51.510;7.522;2023-05-14T02:16:46;10.90;99.90
58638;DHT22;54976;51.510;7.522;2023-05-14T02:19:47;10.90;99.90
58638;DHT22;54976;51.510;7.522;2023-05-14T02:22:47;10.80;99.90
58638;DHT22;54976;51.510;7.522;2023-05-14T02:25:48;10.80;99.90
58638;DHT22;54976;51.510;7.522;2023-05-14T02:28:48;10.70;99.90
58638;DHT22;54976;51.510;7.522;2023-05-14T02:31:49;10.70;99.90
58638;DHT22;54976;51.510;7.522;2023-05-14T02:34:50;10.70;99.90
58638;DHT22;54976;51.510;7.522;2023-05-14T02:37:50;10.70;99.90
58638;DHT22;54976;51.510;7.522;2023-05-14T02:40:51;10.70;99.90
58638;DHT22;54976;51.510;7.522;2023-05-14T02:43:52;10.80;99.90
58638;DHT22;54976;51.510;7.522;2023-05-14T02:46:53;10.70;99.90
58638;DHT22;54976;51.510;7.522;2023-05-14T02:49:54;10.60;99.90
58638;DHT22;54976;51.510;7.522;2023-05-14T02:52:54;10.70;99.90
58638;DHT22;54976;51.510;7.522;2023-05-14T02:55:55;10.60;99.90
58638;DHT22;54976;51.510;7.522;2023-05-14T02:58:55;10.70;99.90
58638;DHT22;54976;51.510;7.522;2023-05-14T03:01:56;10.70;99.90
58638;DHT22;54976;51.510;7.522;2023-05-14T03:04:57;10.70;99.90
58638;DHT22;54976;51.510;7.522;2023-05-14T03:07:58;10.70;99.90
58638;DHT22;54976;51.510;7.522;2023-05-14T03:10:58;10.80;99.90
58638;DHT22;54976;51.510;7.522;2023-05-14T03:13:59;10.80;99.90
58638;DHT22;54976;51.510;7.522;2023-05-14T03:17:00;10.90;99.90
58638;DHT22;54976;51.510;7.522;2023-05-14T03:20:01;10.90;99.90
58638;DHT22;54976;51.510;7.522;2023-05-14T03:23:01;10.80;99.90
58638;DHT22;54976;51.510;7.522;2023-05-14T03:26:02;10.90;99.90
58638;DHT22;54976;51.510;7.522;2023-05-14T03:29:04;10.90;99.90
58638;DHT22;54976;51.510;7.522;2023-05-14T03:32:05;10.90;99.90
58638;DHT22;54976;51.510;7.522;2023-05-14T03:35:06;10.90;99.90
58638;DHT22;54976;51.510;7.522;2023-05-14T03:38:07;10.90;99.90
58638;DHT22;54976;51.510;7.522;2023-05-14T03:41:08;10.90;99.90
58638;DHT22;54976;51.510;7.522;2023-05-14T03:44:10;10.90;99.90
58638;DHT22;54976;51.510;7.522;2023-05-14T03:47:11;10.80;99.90
58638;DHT22;54976;51.510;7.522;2023-05-14T03:50:12;11.00;99.90
58638;DHT22;54976;51.510;7.522;2023-05-14T03:53:12;10.80;99.90
58638;DHT22;54976;51.510;7.522;2023-05-14T03:56:13;10.80;99.90
58638;DHT22;54976;51.510;7.522;2023-05-14T03:59:14;10.80;99.90
58638;DHT22;54976;51.510;7.522;2023-05-14T04:02:14;10.80;99.90
58638;DHT22;54976;51.510;7.522;2023-05-14T04:05:18;10.80;99.90
58638;DHT22;54976;51.510;7.522;2023-05-14T04:08:18;10.80;99.90
58638;DHT22;54976;51.510;7.522;2023-05-14T04:11:19;11.00;99.90
58638;DHT22;54976;51.510;7.522;2023-05-14T04:14:20;10.80;99.90
58638;DHT22;54976;51.510;7.522;2023-05-14T04:17:21;10.80;99.90
58638;DHT22;54976;51.510;7.522;2023-05-14T04:20:22;10.80;99.90
58638;DHT22;54976;51.510;7.522;2023-05-14T04:23:22;10.70;99.90
58638;DHT22;54976;51.510;7.522;2023-05-14T04:26:23;10.70;99.90
58638;DHT22;54976;51.510;7.522;2023-05-14T04:29:23;10.70;99.90
58638;DHT22;54976;51.510;7.522;2023-05-14T04:32:27;10.70;99.90
58638;DHT22;54976;51.510;7.522;2023-05-14T04:35:27;10.80;99.90
58638;DHT22;54976;51.510;7.522;2023-05-14T04:38:28;10.80;99.90
58638;DHT22;54976;51.510;7.522;2023-05-14T04:41:29;10.90;99.90
58638;DHT22;54976;51.510;7.522;2023-05-14T04:44:30;10.80;99.90
58638;DHT22;54976;51.510;7.522;2023-05-14T04:47:31;10.80;99.90
58638;DHT22;54976;51.510;7.522;2023-05-14T04:50:32;10.90;99.90
58638;DHT22;54976;51.510;7.522;2023-05-14T04:53:32;10.90;99.90
58638;DHT22;54976;51.510;7.522;2023-05-14T04:56:33;10.90;99.90
58638;DHT22;54976;51.510;7.522;2023-05-14T04:59:33;10.90;99.90
58638;DHT22;54976;51.510;7.522;2023-05-14T05:02:34;11.00;99.90
58638;DHT22;54976;51.510;7.522;2023-05-14T05:05:35;11.10;99.90
58638;DHT22;54976;51.510;7.522;2023-05-14T05:08:36;11.10;99.90
58638;DHT22;54976;51.510;7.522;2023-05-14T05:11:36;11.30;99.90
58638;DHT22;54976;51.510;7.522;2023-05-14T05:14:38;11.40;99.90
58638;DHT22;54976;51.510;7.522;2023-05-14T05:17:38;11.50;99.90
58638;DHT22;54976;51.510;7.522;2023-05-14T05:20:39;11.80;99.90
58638;DHT22;54976;51.510;7.522;2023-05-14T05:23:40;11.80;99.90
58638;DHT22;54976;51.510;7.522;2023-05-14T05:26:40;12.00;99.90
58638;DHT22;54976;51.510;7.522;2023-05-14T05:29:42;12.20;99.90
58638;DHT22;54976;51.510;7.522;2023-05-14T05:32:43;12.10;99.90
58638;DHT22;54976;51.510;7.522;2023-05-14T05:35:44;12.20;99.90
58638;DHT22;54976;51.510;7.522;2023-05-14T05:38:44;12.20;99.90
58638;DHT22;54976;51.510;7.522;2023-05-14T05:41:45;12.30;99.90
58638;DHT22;54976;51.510;7.522;2023-05-14T05:44:45;12.40;99.90
58638;DHT22;54976;51.510;7.522;2023-05-14T05:47:46;12.50;99.90
58638;DHT22;54976;51.510;7.522;2023-05-14T05:50:48;12.60;99.90
58638;DHT22;54976;51.510;7.522;2023-05-14T05:53:49;12.60;99.90
58638;DHT22;54976;51.510;7.522;2023-05-14T05:56:50;12.70;99.90
58638;DHT22;54976;51.510;7.522;2023-05-14T05:59:51;12.70;99.90
58638;DHT22;54976;51.510;7.522;2023-05-14T06:02:54;12.70;99.90
58638;DHT22;54976;51.510;7.522;2023-05-14T06:05:55;12.90;99.90
58638;DHT22;54976;51.510;7.522;2023-05-14T06:08:56;13.10;99.90
58638;DHT22;54976;51.510;7.522;2023-05-14T06:11:56;13.30;99.90
58638;DHT22;54976;51.510;7.522;2023-05-14T06:14:57;13.40;99.90
58638;DHT22;54976;51.510;7.522;2023-05-14T06:17:58;13.50;99.90
58638;DHT22;54976;51.510;7.522;2023-05-14T06:20:58;13.60;99.90
58638;DHT22;54976;51.510;7.522;2023-05-14T06:23:59;13.70;99.90
58638;DHT22;54976;51.510;7.522;2023-05-14T06:27:00;13.90;99.90
58638;DHT22;54976;51.510;7.522;2023-05-14T06:30:00;14.10;99.60
58638;DHT22;54976;51.510;7.522;2023-05-14T06:33:01;14.20;98.70
58638;DHT22;54976;51.510;7.522;2023-05-14T06:36:05;14.30;98.80
58638;DHT22;54976;51.510;7.522;2023-05-14T06:39:06;14.40;99.00
58638;DHT22;54976;51.510;7.522;2023-05-14T06:42:07;14.70;98.90
58638;DHT22;54976;51.510;7.522;2023-05-14T06:45:07;14.80;98.80
58638;DHT22;54976;51.510;7.522;2023-05-14T06:48:08;14.90;98.30
58638;DHT22;54976;51.510;7.522;2023-05-14T06:51:09;15.10;97.90
58638;DHT22;54976;51.510;7.522;2023-05-14T06:54:13;15.40;96.80
58638;DHT22;54976;51.510;7.522;2023-05-14T06:57:14;15.90;95.20
58638;DHT22;54976;51.510;7.522;2023-05-14T07:00:15;16.50;94.60
58638;DHT22;54976;51.510;7.522;2023-05-14T07:03:16;17.00;94.00
58638;DHT22;54976;51.510;7.522;2023-05-14T07:06:17;17.60;89.90
58638;DHT22;54976;51.510;7.522;2023-05-14T07:09:17;18.40;92.50
58638;DHT22;54976;51.510;7.522;2023-05-14T07:12:18;19.30;87.00
58638;DHT22;54976;51.510;7.522;2023-05-14T07:15:19;20.20;82.60
58638;DHT22;54976;51.510;7.522;2023-05-14T07:18:19;20.80;69.50
58638;DHT22;54976;51.510;7.522;2023-05-14T07:21:20;21.60;70.40
58638;DHT22;54976;51.510;7.522;2023-05-14T07:24:21;22.00;60.20
58638;DHT22;54976;51.510;7.522;2023-05-14T07:27:21;22.30;56.80
58638;DHT22;54976;51.510;7.522;2023-05-14T07:30:22;22.70;56.00
58638;DHT22;54976;51.510;7.522;2023-05-14T07:33:23;23.00;53.20
58638;DHT22;54976;51.510;7.522;2023-05-14T07:36:24;23.50;53.60
58638;DHT22;54976;51.510;7.522;2023-05-14T07:39:24;23.90;54.20
58638;DHT22;54976;51.510;7.522;2023-05-14T07:42:25;24.10;49.70
58638;DHT22;54976;51.510;7.522;2023-05-14T07:45:26;24.30;53.20
58638;DHT22;54976;51.510;7.522;2023-05-14T07:48:27;24.50;48.00
58638;DHT22;54976;51.510;7.522;2023-05-14T07:51:27;24.60;51.50
58638;DHT22;54976;51.510;7.522;2023-05-14T07:54:28;24.50;49.80
58638;DHT22;54976;51.510;7.522;2023-05-14T07:57:28;24.80;49.00
58638;DHT22;54976;51.510;7.522;2023-05-14T08:00:29;24.90;48.60
58638;DHT22;54976;51.510;7.522;2023-05-14T08:03:30;24.40;46.50
58638;DHT22;54976;51.510;7.522;2023-05-14T08:06:30;24.10;47.00
58638;DHT22;54976;51.510;7.522;2023-05-14T08:09:31;23.90;46.30
58638;DHT22;54976;51.510;7.522;2023-05-14T08:12:31;23.60;47.50
58638;DHT22;54976;51.510;7.522;2023-05-14T08:15:32;23.70;48.50
58638;DHT22;54976;51.510;7.522;2023-05-14T08:18:33;23.50;48.90
58638;DHT22;54976;51.510;7.522;2023-05-14T08:21:33;22.50;50.00
58638;DHT22;54976;51.510;7.522;2023-05-14T08:24:34;21.90;53.50
58638;DHT22;54976;51.510;7.522;2023-05-14T08:27:35;21.50;55.00
58638;DHT22;54976;51.510;7.522;2023-05-14T08:30:35;21.20;54.80
58638;DHT22;54976;51.510;7.522;2023-05-14T08:33:36;20.60;54.40
58638;DHT22;54976;51.510;7.522;2023-05-14T08:36:37;20.30;53.80
58638;DHT22;54976;51.510;7.522;2023-05-14T08:39:38;20.00;56.70
58638;DHT22;54976;51.510;7.522;2023-05-14T08:42:39;19.70;57.20
58638;DHT22;54976;51.510;7.522;2023-05-14T08:45:44;19.60;58.10
58638;DHT22;54976;51.510;7.522;2023-05-14T08:48:47;19.60;58.80
58638;DHT22;54976;51.510;7.522;2023-05-14T08:51:51;19.50;58.40
58638;DHT22;54976;51.510;7.522;2023-05-14T08:54:52;19.70;59.20
58638;DHT22;54976;51.510;7.522;2023-05-14T08:57:53;19.50;59.20
58638;DHT22;54976;51.510;7.522;2023-05-14T09:00:55;19.40;60.40
58638;DHT22;54976;51.510;7.522;2023-05-14T09:03:56;19.30;58.30
58638;DHT22;54976;51.510;7.522;2023-05-14T09:07:00;19.20;58.70
58638;DHT22;54976;51.510;7.522;2023-05-14T09:10:01;19.30;59.00
58638;DHT22;54976;51.510;7.522;2023-05-14T09:13:04;19.30;60.60
58638;DHT22;54976;51.510;7.522;2023-05-14T09:16:05;19.50;58.30
58638;DHT22;54976;51.510;7.522;2023-05-14T09:19:06;19.40;57.50
58638;DHT22;54976;51.510;7.522;2023-05-14T09:22:11;19.50;57.20
58638;DHT22;54976;51.510;7.522;2023-05-14T09:25:11;19.60;57.10
58638;DHT22;54976;51.510;7.522;2023-05-14T09:28:16;19.70;56.50
58638;DHT22;54976;51.510;7.522;2023-05-14T09:31:18;19.90;58.20
58638;DHT22;54976;51.510;7.522;2023-05-14T09:34:26;20.20;56.80
58638;DHT22;54976;51.510;7.522;2023-05-14T09:37:27;20.40;55.00
58638;DHT22;54976;51.510;7.522;2023-05-14T09:40:28;21.10;53.30
58638;DHT22;54976;51.510;7.522;2023-05-14T09:43:28;21.70;51.50
58638;DHT22;54976;51.510;7.522;2023-05-14T09:46:29;22.20;51.80
58638;DHT22;54976;51.510;7.522;2023-05-14T09:49:30;22.80;49.00
58638;DHT22;54976;51.510;7.522;2023-05-14T09:52:31;22.90;46.70
58638;DHT22;54976;51.510;7.522;2023-05-14T09:55:32;23.10;46.20
58638;DHT22;54976;51.510;7.522;2023-05-14T09:58:33;22.90;45.70
58638;DHT22;54976;51.510;7.522;2023-05-14T10:01:34;23.30;46.80
58638;DHT22;54976;51.510;7.522;2023-05-14T10:04:36;23.60;46.00
58638;DHT22;54976;51.510;7.522;2023-05-14T10:07:43;23.80;45.50
58638;DHT22;54976;51.510;7.522;2023-05-14T10:10:44;23.40;45.40
58638;DHT22;54976;51.510;7.522;2023-05-14T10:13:48;23.00;45.30
58638;DHT22;54976;51.510;7.522;2023-05-14T10:16:52;22.10;46.60
58638;DHT22;54976;51.510;7.522;2023-05-14T10:19:56;21.70;48.80
58638;DHT22;54976;51.510;7.522;2023-05-14T10:22:57;21.70;48.90
58638;DHT22;54976;51.510;7.522;2023-05-14T10:25:59;21.60;46.90
58638;DHT22;54976;51.510;7.522;2023-05-14T10:28:59;21.30;47.50
58638;DHT22;54976;51.510;7.522;2023-05-14T10:32:04;21.00;49.10
58638;DHT22;54976;51.510;7.522;2023-05-14T10:35:19;21.00;49.80
58638;DHT22;54976;51.510;7.522;2023-05-14T10:38:31;20.90;48.30
58638;DHT22;54976;51.510;7.522;2023-05-14T10:41:33;20.70;48.90
58638;DHT22;54976;51.510;7.522;2023-05-14T10:44:34;20.70;49.90
58638;DHT22;54976;51.510;7.522;2023-05-14T10:47:39;20.70;49.30
58638;DHT22;54976;51.510;7.522;2023-05-14T10:50:41;20.60;48.50
58638;DHT22;54976;51.510;7.522;2023-05-14T10:53:42;20.50;48.80
58638;DHT22;54976;51.510;7.522;2023-05-14T10:56:45;20.40;50.40
58638;DHT22;54976;51.510;7.522;2023-05-14T10:59:47;20.30;51.30
58638;DHT22;54976;51.510;7.522;2023-05-14T11:02:48;20.30;50.30
58638;DHT22;54976;51.510;7.522;2023-05-14T11:05:49;20.30;51.10
58638;DHT22;54976;51.510;7.522;2023-05-14T11:08:50;20.40;48.50
58638;DHT22;54976;51.510;7.522;2023-05-14T11:11:52;20.20;48.70
58638;DHT22;54976;51.510;7.522;2023-05-14T11:14:56;20.30;49.30
58638;DHT22;54976;51.510;7.522;2023-05-14T11:17:57;20.30;50.60
58638;DHT22;54976;51.510;7.522;2023-05-14T11:20:59;20.60;51.40
58638;DHT22;54976;51.510;7.522;2023-05-14T11:24:00;20.70;49.10
58638;DHT22;54976;51.510;7.522;2023-05-14T11:27:01;20.70;48.20
58638;DHT22;54976;51.510;7.522;2023-05-14T11:30:02;20.70;50.50
58638;DHT22;54976;51.510;7.522;2023-05-14T11:33:03;20.70;51.40
58638;DHT22;54976;51.510;7.522;2023-05-14T11:36:04;20.80;49.20
58638;DHT22;54976;51.510;7.522;2023-05-14T11:39:04;20.90;48.00
58638;DHT22;54976;51.510;7.522;2023-05-14T11:42:11;21.10;48.90
58638;DHT22;54976;51.510;7.522;2023-05-14T11:45:24;21.40;50.80
58638;DHT22;54976;51.510;7.522;2023-05-14T11:48:25;21.30;47.70
58638;DHT22;54976;51.510;7.522;2023-05-14T11:51:26;20.90;48.50
58638;DHT22;54976;51.510;7.522;2023-05-14T11:54:31;20.90;48.80
58638;DHT22;54976;51.510;7.522;2023-05-14T11:57:35;21.20;50.90
58638;DHT22;54976;51.510;7.522;2023-05-14T12:00:38;21.50;49.70
58638;DHT22;54976;51.510;7.522;2023-05-14T12:03:40;21.60;46.40
58638;DHT22;54976;51.510;7.522;2023-05-14T12:06:41;21.30;46.30
58638;DHT22;54976;51.510;7.522;2023-05-14T12:09:45;21.40;46.70
58638;DHT22;54976;51.510;7.522;2023-05-14T12:12:49;21.90;46.80
58638;DHT22;54976;51.510;7.522;2023-05-14T12:15:55;22.40;46.20
58638;DHT22;54976;51.510;7.522;2023-05-14T12:18:59;23.50;45.50
58638;DHT22;54976;51.510;7.522;2023-05-14T12:22:01;24.50;45.20
58638;DHT22;54976;51.510;7.522;2023-05-14T12:25:01;25.50;42.90
58638;DHT22;54976;51.510;7.522;2023-05-14T12:28:13;26.00;41.90
58638;DHT22;54976;51.510;7.522;2023-05-14T12:31:14;25.20;42.50
58638;DHT22;54976;51.510;7.522;2023-05-14T12:34:15;25.30;42.50
58638;DHT22;54976;51.510;7.522;2023-05-14T12:37:16;26.00;41.80
58638;DHT22;54976;51.510;7.522;2023-05-14T12:40:18;26.20;41.20
58638;DHT22;54976;51.510;7.522;2023-05-14T12:43:18;26.60;40.20
58638;DHT22;54976;51.510;7.522;2023-05-14T12:46:19;26.90;38.10
58638;DHT22;54976;51.510;7.522;2023-05-14T12:49:20;27.00;39.10
58638;DHT22;54976;51.510;7.522;2023-05-14T12:52:20;27.60;37.00
58638;DHT22;54976;51.510;7.522;2023-05-14T12:55:21;27.40;38.10
58638;DHT22;54976;51.510;7.522;2023-05-14T12:58:21;27.20;36.50
58638;DHT22;54976;51.510;7.522;2023-05-14T13:01:23;27.60;38.10
58638;DHT22;54976;51.510;7.522;2023-05-14T13:04:24;27.30;38.20
58638;DHT22;54976;51.510;7.522;2023-05-14T13:07:24;25.90;39.30
58638;DHT22;54976;51.510;7.522;2023-05-14T13:10:25;25.20;41.50
58638;DHT22;54976;51.510;7.522;2023-05-14T13:13:25;24.70;42.30
58638;DHT22;54976;51.510;7.522;2023-05-14T13:16:27;25.00;42.30
58638;DHT22;54976;51.510;7.522;2023-05-14T13:19:27;24.40;42.90
58638;DHT22;54976;51.510;7.522;2023-05-14T13:22:28;23.80;43.80
58638;DHT22;54976;51.510;7.522;2023-05-14T13:25:29;22.90;44.40
58638;DHT22;54976;51.510;7.522;2023-05-14T13:28:29;22.40;44.50
58638;DHT22;54976;51.510;7.522;2023-05-14T13:31:30;22.10;44.50
58638;DHT22;54976;51.510;7.522;2023-05-14T13:34:31;22.70;44.60
58638;DHT22;54976;51.510;7.522;2023-05-14T13:37:31;23.90;45.10
58638;DHT22;54976;51.510;7.522;2023-05-14T13:40:32;24.50;42.00
58638;DHT22;54976;51.510;7.522;2023-05-14T13:43:33;24.60;43.50
58638;DHT22;54976;51.510;7.522;2023-05-14T13:46:37;24.30;43.30
58638;DHT22;54976;51.510;7.522;2023-05-14T13:49:38;24.10;45.20
58638;DHT22;54976;51.510;7.522;2023-05-14T13:52:39;23.80;43.30
58638;DHT22;54976;51.510;7.522;2023-05-14T13:55:40;23.20;44.10
58638;DHT22;54976;51.510;7.522;2023-05-14T13:58:41;23.50;43.70
58638;DHT22;54976;51.510;7.522;2023-05-14T14:01:41;24.00;42.90
58638;DHT22;54976;51.510;7.522;2023-05-14T14:04:42;23.70;43.90
58638;DHT22;54976;51.510;7.522;2023-05-14T14:07:43;23.30;43.30
58638;DHT22;54976;51.510;7.522;2023-05-14T14:10:43;22.80;43.40
58638;DHT22;54976;51.510;7.522;2023-05-14T14:13:44;22.40;44.50
58638;DHT22;54976;51.510;7.522;2023-05-14T14:16:44;22.10;44.60
58638;DHT22;54976;51.510;7.522;2023-05-14T14:19:45;23.10;46.00
58638;DHT22;54976;51.510;7.522;2023-05-14T14:22:46;24.80;41.90
58638;DHT22;54976;51.510;7.522;2023-05-14T14:25:46;25.20;40.00
58638;DHT22;54976;51.510;7.522;2023-05-14T14:28:47;24.50;41.10
58638;DHT22;54976;51.510;7.522;2023-05-14T14:31:48;23.70;43.00
58638;DHT22;54976;51.510;7.522;2023-05-14T14:34:48;23.00;43.40
58638;DHT22;54976;51.510;7.522;2023-05-14T14:37:50;22.40;43.80
58638;DHT22;54976;51.510;7.522;2023-05-14T14:40:53;22.00;46.20
58638;DHT22;54976;51.510;7.522;2023-05-14T14:43:53;21.80;45.60
58638;DHT22;54976;51.510;7.522;2023-05-14T14:46:54;21.60;45.90
58638;DHT22;54976;51.510;7.522;2023-05-14T14:49:55;21.70;46.10
58638;DHT22;54976;51.510;7.522;2023-05-14T14:52:56;22.60;45.00
58638;DHT22;54976;51.510;7.522;2023-05-14T14:55:57;23.60;45.40
58638;DHT22;54976;51.510;7.522;2023-05-14T14:58:58;24.30;42.50
58638;DHT22;54976;51.510;7.522;2023-05-14T15:01:58;24.30;41.20
58638;DHT22;54976;51.510;7.522;2023-05-14T15:04:59;24.70;42.90
58638;DHT22;54976;51.510;7.522;2023-05-14T15:07:59;24.60;40.10
58638;DHT22;54976;51.510;7.522;2023-05-14T15:11:03;24.80;42.80
58638;DHT22;54976;51.510;7.522;2023-05-14T15:14:05;24.50;41.20
58638;DHT22;54976;51.510;7.522;2023-05-14T15:17:06;24.60;40.30
58638;DHT22;54976;51.510;7.522;2023-05-14T15:20:07;24.50;40.00
58638;DHT22;54976;51.510;7.522;2023-05-14T15:23:11;24.50;40.40
58638;DHT22;54976;51.510;7.522;2023-05-14T15:26:11;24.60;41.20
58638;DHT22;54976;51.510;7.522;2023-05-14T15:29:12;24.50;41.40
58638;DHT22;54976;51.510;7.522;2023-05-14T15:32:12;24.60;41.10
58638;DHT22;54976;51.510;7.522;2023-05-14T15:35:13;24.70;41.10
58638;DHT22;54976;51.510;7.522;2023-05-14T15:38:14;24.40;41.90
58638;DHT22;54976;51.510;7.522;2023-05-14T15:41:15;23.70;42.30
58638;DHT22;54976;51.510;7.522;2023-05-14T15:44:15;23.00;42.40
58638;DHT22;54976;51.510;7.522;2023-05-14T15:47:16;22.50;43.50
58638;DHT22;54976;51.510;7.522;2023-05-14T15:50:16;22.00;44.00
58638;DHT22;54976;51.510;7.522;2023-05-14T15:53:17;21.80;45.10
58638;DHT22;54976;51.510;7.522;2023-05-14T15:56:18;21.70;45.70
58638;DHT22;54976;51.510;7.522;2023-05-14T15:59:18;21.70;44.90
58638;DHT22;54976;51.510;7.522;2023-05-14T16:02:19;21.60;44.60
58638;DHT22;54976;51.510;7.522;2023-05-14T16:05:19;21.40;44.60
58638;DHT22;54976;51.510;7.522;2023-05-14T16:08:20;21.30;45.10
58638;DHT22;54976;51.510;7.522;2023-05-14T16:11:21;21.20;45.50
58638;DHT22;54976;51.510;7.522;2023-05-14T16:14:21;21.20;46.50
58638;DHT22;54976;51.510;7.522;2023-05-14T16:17:22;21.20;47.80
58638;DHT22;54976;51.510;7.522;2023-05-14T16:20:23;21.20;47.90
58638;DHT22;54976;51.510;7.522;2023-05-14T16:23:23;21.10;47.10
58638;DHT22;54976;51.510;7.522;2023-05-14T16:26:24;20.90;48.00
58638;DHT22;54976;51.510;7.522;2023-05-14T16:29:25;20.90;46.70
58638;DHT22;54976;51.510;7.522;2023-05-14T16:32:26;20.90;47.10
58638;DHT22;54976;51.510;7.522;2023-05-14T16:35:27;20.80;47.00
58638;DHT22;54976;51.510;7.522;2023-05-14T16:38:27;21.00;47.80
58638;DHT22;54976;51.510;7.522;2023-05-14T16:41:28;20.90;45.70
58638;DHT22;54976;51.510;7.522;2023-05-14T16:44:28;20.90;46.20
58638;DHT22;54976;51.510;7.522;2023-05-14T16:47:29;21.10;45.20
58638;DHT22;54976;51.510;7.522;2023-05-14T16:50:30;21.20;44.60
58638;DHT22;54976;51.510;7.522;2023-05-14T16:53:31;21.30;45.70
58638;DHT22;54976;51.510;7.522;2023-05-14T16:56:31;21.30;44.60
58638;DHT22;54976;51.510;7.522;2023-05-14T16:59:32;21.50;46.10
58638;DHT22;54976;51.510;7.522;2023-05-14T17:02:32;21.50;43.60
58638;DHT22;54976;51.510;7.522;2023-05-14T17:05:33;21.40;44.00
58638;DHT22;54976;51.510;7.522;2023-05-14T17:08:34;21.20;43.50
58638;DHT22;54976;51.510;7.522;2023-05-14T17:11:35;21.10;43.90
58638;DHT22;54976;51.510;7.522;2023-05-14T17:14:36;21.00;46.50
58638;DHT22;54976;51.510;7.522;2023-05-14T17:17:36;21.00;46.10
58638;DHT22;54976;51.510;7.522;2023-05-14T17:20:37;20.90;45.40
58638;DHT22;54976;51.510;7.522;2023-05-14T17:23:38;20.80;45.70
58638;DHT22;54976;51.510;7.522;2023-05-14T17:26:38;20.70;45.20
58638;DHT22;54976;51.510;7.522;2023-05-14T17:29:39;20.50;45.40
58638;DHT22;54976;51.510;7.522;2023-05-14T17:32:40;20.40;46.10
58638;DHT22;54976;51.510;7.522;2023-05-14T17:35:41;20.30;45.70
58638;DHT22;54976;51.510;7.522;2023-05-14T17:38:43;20.30;45.50
58638;DHT22;54976;51.510;7.522;2023-05-14T17:41:43;20.10;45.50
58638;DHT22;54976;51.510;7.522;2023-05-14T17:44:44;20.10;46.40
58638;DHT22;54976;51.510;7.522;2023-05-14T17:47:46;19.90;47.20
58638;DHT22;54976;51.510;7.522;2023-05-14T17:50:47;19.80;46.60
58638;DHT22;54976;51.510;7.522;2023-05-14T17:53:48;19.60;46.70
58638;DHT22;54976;51.510;7.522;2023-05-14T17:56:49;19.60;46.20
58638;DHT22;54976;51.510;7.522;2023-05-14T17:59:52;19.50;47.10
58638;DHT22;54976;51.510;7.522;2023-05-14T18:02:53;19.40;48.70
58638;DHT22;54976;51.510;7.522;2023-05-14T18:05:53;19.40;49.60
58638;DHT22;54976;51.510;7.522;2023-05-14T18:08:54;19.30;50.60
58638;DHT22;54976;51.510;7.522;2023-05-14T18:11:54;19.10;51.10
58638;DHT22;54976;51.510;7.522;2023-05-14T18:14:55;19.00;51.90
58638;DHT22;54976;51.510;7.522;2023-05-14T18:17:56;19.00;52.00
58638;DHT22;54976;51.510;7.522;2023-05-14T18:20:57;18.90;52.10
58638;DHT22;54976;51.510;7.522;2023-05-14T18:23:57;18.80;53.40
58638;DHT22;54976;51.510;7.522;2023-05-14T18:26:58;18.80;54.20
58638;DHT22;54976;51.510;7.522;2023-05-14T18:29:59;18.80;54.20
58638;DHT22;54976;51.510;7.522;2023-05-14T18:32:59;18.70;54.40
58638;DHT22;54976;51.510;7.522;2023-05-14T18:36:00;18.70;54.80
58638;DHT22;54976;51.510;7.522;2023-05-14T18:39:01;18.60;55.60
58638;DHT22;54976;51.510;7.522;2023-05-14T18:42:01;18.60;55.80
58638;DHT22;54976;51.510;7.522;2023-05-14T18:45:02;18.50;55.40
58638;DHT22;54976;51.510;7.522;2023-05-14T18:48:04;18.50;55.60
58638;DHT22;54976;51.510;7.522;2023-05-14T18:51:04;18.30;56.60
58638;DHT22;54976;51.510;7.522;2023-05-14T18:54:05;18.20;56.30
58638;DHT22;54976;51.510;7.522;2023-05-14T18:57:06;18.20;57.80
58638;DHT22;54976;51.510;7.522;2023-05-14T19:00:07;18.10;57.00
58638;DHT22;54976;51.510;7.522;2023-05-14T19:03:07;18.00;57.40
58638;DHT22;54976;51.510;7.522;2023-05-14T19:06:08;17.90;57.00
58638;DHT22;54976;51.510;7.522;2023-05-14T19:09:09;17.80;58.10